Havelock, Nebraska
Current Conditions -  °F | °C
As of 10:54 AM on Thursday 30 Oct 2014 (Local Time) from KLNK Reporting Station
Clear Clear  
Wind Chill: 14°   Ceiling: Unl
Heat Index: 14°   Visibility: 10mi
Dew Point:   Wind: 14mph
Humidity: 51%   Direction: 330°NNW
Pressure: 30.11"   Gusts: NA
Location:  40.8505°N, 96.6337°W
Report Text: KLNK 301554Z 33012KT 10SM CLR 14/04 A3011 RMK AO2 SLP197 T01440044
Loading
Personal Weather Stations






























Interactive Weather Map
Tropical Storm Tracking
New forecast layout! Learn more

10-Day Weather Forecast

Advertisements
Track Severe Weather on mobile